Merrill, WI

11:00 AM CST on January 30, 2015 (GMT -0600)
Merrill Municipal | Change Station
CLOSE
Current Station
Airport
Location: Merrill,
Elevation: 1316 ft
Nearby Weather Stations

Elev 1316 ft 45.20 °N, 89.71 °W | Updated 25 minutes ago

Overcast
Overcast
13 °F
Feels Like 13 °F
N
0
Wind Variable Wind from North

Today
High -- | Low -- °F
--% Chance of Precip.
Yesterday
High -- | Low -- °F
Precip. -- in
7:21 AM 5:03 PM
Waxing Gibbous, 84% visible
Pressure 30.47 in
Visibility 10.0 miles
Clouds Scattered Clouds 9000 ft
Mostly Cloudy 11000 ft
Dew Point 4 °F
Humidity 68%
Rainfall 0.00 in
Snow Depth Not available.
UV 1 out of 12
Pollen .10 out of 12
Air Quality Not available.
Flu Activity Not available.
METAR KRRL 301635Z AUTO 00000KT 10SM SCT090 BKN110 M10/M15 A3047 RMK AO2 T11051154

More Conditions Fewer Conditions

Pressure 30.47 in
Visibility 10.0 miles
Clouds Scattered Clouds 9000 ft
Mostly Cloudy 11000 ft
Dew Point 4 °F
Humidity 68%
Rainfall 0.00 in
Snow Depth Not available.
UV 1 out of 12
Pollen .10 out of 12
Air Quality Not available.
Flu Activity Not available.
METAR KRRL 301635Z AUTO 00000KT 10SM SCT090 BKN110 M10/M15 A3047 RMK AO2 T11051154

More Conditions Fewer Conditions

10-Day Weather Forecast

Almanac

Astronomy

Jan. 30, 2015 Rise Set
Actual Time
Civil Twilight
Nautical Twilight
Astronomical Twilight
Moon
Length of Visible Light
Length of Day
Tomorrow will be .
, % of the Moon is Illuminated

Today's Extremes

State Highs State Lows

Community

WunderPhotos

Upload Photos

1,791,821 photos uploaded!

WunderBlogs® & News

Nearby

Air Quality

  Air Quality AQ Index Pollutant
Not available.

Snow Depth

Station Depth Elevation

Earthquake Activity

City Distance Mag. Time & Date
Minimum magnitude displayed is 2.5.

Coastal Water Temperatures

Place Temperature

Nearby Weather Stations